Time;durP1;ratioP1;P1;durP2;ratioP2;P2;SDS_P1;SDS_P2;PMS_P1;PMS_P2;Temp;Humidity;BMP_temperature;BMP_pressure;BME280_temperature;BME280_humidity;BME280_pressure;Samples;Min_cycle;Max_cycle;Signal;HPM_P1;HPM_P2
2021/07/03 00:00:34;;;;;;;10.15;4.38;;;16.00;99.90;;;;;;5044145;28;20466;-71
2021/07/03 00:03:00;;;;;;;8.43;4.32;;;16.00;99.90;;;;;;5044257;28;20041;-71
2021/07/03 00:05:25;;;;;;;5.82;4.10;;;16.10;99.90;;;;;;5044843;28;20116;-72
2021/07/03 00:07:52;;;;;;;12.15;4.50;;;16.10;99.90;;;;;;5044602;28;20037;-71
2021/07/03 00:10:17;;;;;;;8.32;5.22;;;16.00;99.90;;;;;;5044159;28;20076;-70
2021/07/03 00:12:43;;;;;;;8.23;4.50;;;16.10;99.90;;;;;;5044332;28;20026;-71
2021/07/03 00:15:13;;;;;;;15.38;4.88;;;16.00;99.90;;;;;;5044229;28;20034;-71
2021/07/03 00:17:39;;;;;;;9.13;5.68;;;16.00;99.90;;;;;;5043912;28;20029;-70
2021/07/03 00:20:08;;;;;;;8.23;4.68;;;16.00;99.90;;;;;;5044002;28;20028;-71
2021/07/03 00:22:34;;;;;;;11.23;4.32;;;15.90;99.90;;;;;;5043400;28;20065;-71
2021/07/03 00:24:59;;;;;;;6.78;4.25;;;15.90;99.90;;;;;;5044348;28;20033;-73
2021/07/03 00:27:25;;;;;;;8.38;4.57;;;15.90;99.90;;;;;;5044470;28;20104;-72
2021/07/03 00:29:51;;;;;;;13.00;5.15;;;15.90;99.90;;;;;;5047095;28;20911;-72
2021/07/03 00:32:16;;;;;;;8.75;5.18;;;15.80;99.90;;;;;;5048541;28;20025;-71
2021/07/03 00:34:42;;;;;;;10.65;4.43;;;15.80;99.90;;;;;;5048224;28;20033;-71
2021/07/03 00:37:07;;;;;;;10.75;4.90;;;15.70;99.90;;;;;;5047497;28;20029;-71
2021/07/03 00:39:33;;;;;;;13.95;5.10;;;15.70;99.90;;;;;;5047818;28;20470;-70
2021/07/03 00:41:59;;;;;;;12.60;5.57;;;15.70;99.90;;;;;;5047896;28;20029;-71
2021/07/03 00:44:37;;;;;;;17.70;6.18;;;15.60;99.90;;;;;;5047919;28;20045;-72
2021/07/03 00:47:06;;;;;;;8.32;4.50;;;15.60;99.90;;;;;;5047730;28;20025;-70
2021/07/03 00:49:33;;;;;;;7.07;4.80;;;15.50;99.90;;;;;;5048089;28;20052;-71
2021/07/03 00:51:59;;;;;;;11.93;5.15;;;15.50;99.90;;;;;;5047584;28;20108;-72
2021/07/03 00:54:25;;;;;;;11.48;5.65;;;15.40;99.90;;;;;;5047332;28;20513;-71
2021/07/03 00:57:01;;;;;;;7.90;4.63;;;15.40;99.90;;;;;;5046319;28;20021;-70
2021/07/03 00:59:31;;;;;;;12.70;5.72;;;15.40;99.90;;;;;;5047193;28;20024;-71
2021/07/03 01:01:57;;;;;;;8.32;4.75;;;15.30;99.90;;;;;;5047986;28;20056;-70
2021/07/03 01:04:22;;;;;;;9.35;5.20;;;15.30;99.90;;;;;;5047581;28;20045;-71
2021/07/03 01:06:48;;;;;;;7.90;4.97;;;15.30;99.90;;;;;;5047641;28;20029;-70
2021/07/03 01:09:13;;;;;;;12.20;5.13;;;15.30;99.90;;;;;;5047670;28;20064;-72
2021/07/03 01:11:39;;;;;;;10.43;5.75;;;15.30;99.90;;;;;;5047495;28;20033;-71
2021/07/03 01:14:05;;;;;;;8.57;4.88;;;15.30;99.90;;;;;;5047152;28;20486;-71
2021/07/03 01:16:30;;;;;;;10.18;5.55;;;15.20;99.90;;;;;;5047627;28;20113;-71
2021/07/03 01:18:56;;;;;;;9.82;5.05;;;15.20;99.90;;;;;;5047151;28;20025;-73
2021/07/03 01:21:22;;;;;;;8.23;4.75;;;15.20;99.90;;;;;;5047155;28;20025;-72
2021/07/03 01:23:48;;;;;;;13.60;5.30;;;15.10;99.90;;;;;;5047050;28;20049;-71
2021/07/03 01:26:14;;;;;;;11.52;5.47;;;15.10;99.90;;;;;;5046363;28;20029;-73
2021/07/03 01:28:40;;;;;;;10.27;4.70;;;15.10;99.90;;;;;;5062337;28;20666;-71
2021/07/03 01:31:06;;;;;;;11.52;4.72;;;15.10;99.90;;;;;;5047175;28;20089;-71
2021/07/03 01:33:32;;;;;;;8.82;5.28;;;15.10;99.90;;;;;;5046445;28;20043;-72
2021/07/03 01:35:58;;;;;;;7.57;5.35;;;15.00;99.90;;;;;;5045758;28;20488;-72
2021/07/03 01:38:25;;;;;;;8.77;5.30;;;15.00;99.90;;;;;;5047313;28;20077;-72
2021/07/03 01:40:51;;;;;;;11.07;5.68;;;15.00;99.90;;;;;;5060942;28;20028;-73
2021/07/03 01:43:19;;;;;;;10.85;5.75;;;15.00;99.90;;;;;;5046777;28;20058;-71
2021/07/03 01:45:45;;;;;;;10.80;5.90;;;14.90;99.90;;;;;;5047032;28;20026;-71
2021/07/03 01:48:11;;;;;;;10.73;5.07;;;14.90;99.90;;;;;;5046559;28;20458;-71
2021/07/03 01:50:36;;;;;;;11.93;5.93;;;14.90;99.90;;;;;;5046826;28;20025;-71
2021/07/03 01:53:02;;;;;;;9.93;5.45;;;14.80;99.90;;;;;;5046425;28;20359;-71
2021/07/03 01:55:28;;;;;;;11.23;5.45;;;14.80;99.90;;;;;;5046314;28;20068;-72
2021/07/03 01:57:53;;;;;;;13.63;6.00;;;14.70;99.90;;;;;;5046457;28;20037;-72
2021/07/03 02:00:19;;;;;;;9.43;5.85;;;14.70;99.90;;;;;;5061650;28;20101;-71
2021/07/03 02:02:45;;;;;;;8.73;4.75;;;14.70;99.90;;;;;;5046494;28;20068;-72
2021/07/03 02:05:11;;;;;;;12.15;6.05;;;14.70;99.90;;;;;;5046343;28;20021;-71
2021/07/03 02:07:36;;;;;;;12.00;5.47;;;14.70;99.90;;;;;;5046277;28;20040;-71
2021/07/03 02:10:03;;;;;;;12.35;5.97;;;14.70;99.90;;;;;;5046146;28;20366;-72
2021/07/03 02:12:28;;;;;;;17.30;6.90;;;14.60;99.90;;;;;;5046449;28;20052;-71
2021/07/03 02:14:54;;;;;;;12.98;5.32;;;14.60;99.90;;;;;;5046602;28;20041;-71
2021/07/03 02:17:20;;;;;;;14.57;5.70;;;14.60;99.90;;;;;;5046602;28;20032;-72
2021/07/03 02:19:45;;;;;;;12.68;6.10;;;14.50;99.90;;;;;;5045061;28;20038;-70
2021/07/03 02:22:11;;;;;;;12.65;6.68;;;14.50;99.90;;;;;;5046100;28;20103;-71
2021/07/03 02:24:37;;;;;;;11.95;6.05;;;14.50;99.90;;;;;;5045689;28;20059;-71
2021/07/03 02:27:03;;;;;;;20.52;6.45;;;14.50;99.90;;;;;;5045953;28;20049;-71
2021/07/03 02:29:29;;;;;;;13.80;6.72;;;14.40;99.90;;;;;;5045743;28;20053;-71
2021/07/03 02:31:55;;;;;;;9.40;5.45;;;14.40;99.90;;;;;;5045948;28;20026;-70
2021/07/03 02:34:20;;;;;;;15.48;6.70;;;14.40;99.90;;;;;;5046549;28;20064;-71
2021/07/03 02:36:46;;;;;;;24.98;7.18;;;14.40;99.90;;;;;;5045779;28;20034;-71
2021/07/03 02:39:12;;;;;;;14.30;6.22;;;14.40;99.90;;;;;;5045766;28;20040;-72
2021/07/03 02:41:38;;;;;;;13.45;5.95;;;14.40;99.90;;;;;;5045750;28;20030;-72
2021/07/03 02:44:06;;;;;;;9.95;6.35;;;14.40;99.90;;;;;;5045529;28;20041;-72
2021/07/03 02:46:31;;;;;;;11.65;5.90;;;14.40;99.90;;;;;;5045616;28;20057;-71
2021/07/03 02:48:57;;;;;;;10.85;5.78;;;14.40;99.90;;;;;;5045690;28;20032;-72
2021/07/03 02:51:23;;;;;;;14.32;5.90;;;14.40;99.90;;;;;;5045397;28;20044;-72
2021/07/03 02:53:48;;;;;;;15.35;5.05;;;14.40;99.90;;;;;;5045205;28;20410;-72
2021/07/03 02:56:14;;;;;;;9.60;5.28;;;14.40;99.90;;;;;;5045467;28;20476;-72
2021/07/03 02:58:40;;;;;;;10.00;5.72;;;14.30;99.90;;;;;;5045247;28;20029;-72
2021/07/03 03:01:05;;;;;;;9.30;5.78;;;14.30;99.90;;;;;;5045421;28;20033;-71
2021/07/03 03:03:32;;;;;;;10.57;5.55;;;14.30;99.90;;;;;;5045208;28;20046;-72
2021/07/03 03:05:58;;;;;;;17.08;6.32;;;14.20;99.90;;;;;;5044937;28;20057;-71
2021/07/03 03:08:23;;;;;;;8.75;4.63;;;14.20;99.90;;;;;;5045580;28;20024;-71
2021/07/03 03:10:49;;;;;;;11.05;5.43;;;14.20;99.90;;;;;;5045330;28;20025;-71
2021/07/03 03:13:14;;;;;;;13.85;6.20;;;14.20;99.90;;;;;;5044983;28;20030;-71
2021/07/03 03:15:40;;;;;;;16.63;4.95;;;14.20;99.90;;;;;;5044843;28;20049;-72
2021/07/03 03:18:06;;;;;;;9.18;5.28;;;14.10;99.90;;;;;;5045053;28;20032;-72
2021/07/03 03:20:32;;;;;;;10.90;5.47;;;14.10;99.90;;;;;;5045085;28;20037;-72
2021/07/03 03:22:57;;;;;;;13.75;6.43;;;14.10;99.90;;;;;;5044914;28;20044;-72
2021/07/03 03:25:23;;;;;;;12.18;5.95;;;14.10;99.90;;;;;;5045213;28;20089;-72
2021/07/03 03:27:48;;;;;;;18.42;6.53;;;14.10;99.90;;;;;;5044796;28;20033;-72
2021/07/03 03:30:14;;;;;;;15.30;5.20;;;14.10;99.90;;;;;;5044630;28;20025;-72
2021/07/03 03:32:40;;;;;;;8.25;5.60;;;14.10;99.90;;;;;;5044595;28;20088;-71
2021/07/03 03:35:06;;;;;;;11.80;6.43;;;14.10;99.90;;;;;;5044546;28;20037;-71
2021/07/03 03:37:32;;;;;;;11.02;5.40;;;14.10;99.90;;;;;;5044342;28;20048;-72
2021/07/03 03:39:58;;;;;;;11.38;5.75;;;14.10;99.90;;;;;;5044890;28;20029;-72
2021/07/03 03:42:24;;;;;;;9.50;5.30;;;14.10;99.90;;;;;;5044311;28;20028;-73
2021/07/03 03:44:49;;;;;;;9.73;5.93;;;14.10;99.90;;;;;;5044669;28;20596;-72
2021/07/03 03:47:15;;;;;;;12.55;6.55;;;14.10;99.90;;;;;;5044737;28;20025;-72
2021/07/03 03:49:40;;;;;;;9.32;5.50;;;14.10;99.90;;;;;;5044267;28;20051;-72
2021/07/03 03:52:06;;;;;;;13.30;5.57;;;14.10;99.90;;;;;;5044462;28;20018;-72
2021/07/03 03:54:32;;;;;;;19.73;6.78;;;14.10;99.90;;;;;;5044152;28;20187;-72
2021/07/03 03:59:42;;;;;;;15.18;6.60;;;14.10;99.90;;;;;;5044859;28;20049;-71
2021/07/03 04:02:07;;;;;;;15.50;6.55;;;14.20;99.90;;;;;;5043803;28;20034;-71
2021/07/03 04:04:33;;;;;;;16.77;7.65;;;14.10;99.90;;;;;;5043781;28;20076;-72
2021/07/03 04:06:58;;;;;;;8.68;5.28;;;14.10;99.90;;;;;;5044375;28;20117;-73
2021/07/03 04:09:24;;;;;;;12.77;6.30;;;14.10;99.90;;;;;;5043981;28;20033;-72
2021/07/03 04:11:50;;;;;;;12.50;5.93;;;14.20;99.90;;;;;;5059899;28;20026;-72
2021/07/03 04:14:16;;;;;;;14.88;5.75;;;14.10;99.90;;;;;;5044109;28;20052;-72
2021/07/03 04:16:41;;;;;;;12.27;6.53;;;14.20;99.90;;;;;;5043950;28;20032;-72
2021/07/03 04:19:07;;;;;;;10.80;6.05;;;14.20;99.90;;;;;;5044427;28;20025;-71
2021/07/03 04:21:32;;;;;;;12.77;6.32;;;14.20;99.90;;;;;;5043811;28;20089;-72
2021/07/03 04:23:58;;;;;;;15.55;6.40;;;14.30;99.90;;;;;;5044158;28;20038;-72
2021/07/03 04:26:24;;;;;;;11.35;6.03;;;14.30;99.90;;;;;;5044323;28;20085;-73
2021/07/03 04:28:50;;;;;;;11.93;5.63;;;14.30;99.90;;;;;;5044338;28;20087;-71
2021/07/03 04:31:16;;;;;;;9.65;4.90;;;14.30;99.90;;;;;;5044175;28;20025;-72
2021/07/03 04:33:41;;;;;;;8.18;4.45;;;14.40;99.90;;;;;;5044277;28;20117;-71
2021/07/03 04:36:07;;;;;;;11.25;5.55;;;14.40;99.90;;;;;;5043918;28;20033;-71
2021/07/03 04:38:33;;;;;;;9.52;5.07;;;14.50;99.90;;;;;;5043852;28;20029;-72
2021/07/03 04:40:58;;;;;;;13.38;6.07;;;14.50;99.90;;;;;;5043784;28;20488;-72
2021/07/03 04:43:24;;;;;;;9.65;4.88;;;14.50;99.90;;;;;;5043335;28;20065;-73
2021/07/03 04:45:50;;;;;;;9.93;5.35;;;14.50;99.90;;;;;;5043855;28;20043;-72
2021/07/03 04:48:16;;;;;;;9.23;4.65;;;14.60;99.90;;;;;;5044075;28;20065;-71
2021/07/03 04:50:41;;;;;;;12.13;5.80;;;14.60;99.90;;;;;;5043593;28;20075;-72
2021/07/03 04:53:07;;;;;;;8.38;5.40;;;14.70;99.90;;;;;;5043882;28;20083;-71
2021/07/03 04:55:32;;;;;;;15.35;4.95;;;14.70;99.90;;;;;;5043764;28;20044;-71
2021/07/03 04:57:58;;;;;;;8.30;3.65;;;14.80;99.90;;;;;;5043376;28;20029;-72
2021/07/03 05:00:24;;;;;;;8.32;4.50;;;14.80;99.90;;;;;;5044295;28;20108;-72
2021/07/03 05:02:49;;;;;;;8.40;4.63;;;14.80;99.90;;;;;;5043685;28;20041;-72
2021/07/03 05:05:15;;;;;;;9.20;5.05;;;14.80;99.90;;;;;;5043649;28;20025;-71
2021/07/03 05:07:42;;;;;;;8.10;4.72;;;14.90;99.90;;;;;;5044001;28;20025;-71
2021/07/03 05:10:09;;;;;;;8.85;4.47;;;15.00;99.90;;;;;;5043389;28;20477;-72
2021/07/03 05:12:35;;;;;;;13.27;6.20;;;15.00;99.90;;;;;;5043272;28;20048;-71
2021/07/03 05:15:00;;;;;;;9.90;4.93;;;15.00;99.90;;;;;;5045356;28;20033;-72
2021/07/03 05:17:28;;;;;;;15.52;6.22;;;15.10;99.90;;;;;;5046697;28;20104;-72
2021/07/03 05:19:54;;;;;;;10.68;6.13;;;15.10;99.90;;;;;;5046086;28;20497;-72
2021/07/03 05:22:20;;;;;;;9.70;5.32;;;15.00;99.90;;;;;;5047203;28;20036;-72
2021/07/03 05:24:46;;;;;;;8.38;4.78;;;15.20;99.90;;;;;;5045481;28;20037;-72
2021/07/03 05:27:12;;;;;;;10.85;5.82;;;15.20;99.90;;;;;;5046504;28;20044;-72
2021/07/03 05:29:37;;;;;;;11.25;5.95;;;15.20;99.90;;;;;;5046151;28;20116;-72
2021/07/03 05:32:03;;;;;;;12.90;6.15;;;15.30;99.90;;;;;;5046920;28;20036;-72
2021/07/03 05:34:29;;;;;;;14.00;5.75;;;15.30;99.90;;;;;;5047423;28;20039;-71
2021/07/03 05:36:55;;;;;;;11.00;5.55;;;15.40;99.90;;;;;;5047258;28;20037;-71
2021/07/03 05:39:20;;;;;;;10.45;5.78;;;15.40;99.90;;;;;;5047148;28;20030;-72
2021/07/03 05:41:46;;;;;;;7.68;4.90;;;15.40;99.90;;;;;;5046029;28;20922;-71
2021/07/03 05:44:12;;;;;;;10.25;4.97;;;15.40;99.90;;;;;;5045174;28;20040;-72
2021/07/03 05:46:41;;;;;;;11.57;5.72;;;15.50;99.90;;;;;;5046631;28;20108;-72
2021/07/03 05:49:07;;;;;;;12.77;5.57;;;15.60;99.90;;;;;;5046719;28;20028;-72
2021/07/03 05:51:33;;;;;;;11.88;4.93;;;15.60;99.90;;;;;;5045883;28;20017;-71
2021/07/03 05:53:59;;;;;;;11.63;4.60;;;15.60;99.90;;;;;;5046433;28;20172;-75
2021/07/03 05:56:26;;;;;;;10.27;5.18;;;15.70;99.90;;;;;;5046694;28;20025;-74
2021/07/03 05:58:53;;;;;;;6.80;4.18;;;15.70;99.90;;;;;;5046040;28;20021;-72
2021/07/03 06:01:18;;;;;;;10.02;4.60;;;15.90;99.90;;;;;;5046766;28;20041;-72
2021/07/03 06:03:44;;;;;;;8.60;4.72;;;15.80;99.90;;;;;;5046784;28;20531;-71
2021/07/03 06:06:11;;;;;;;10.35;5.15;;;15.80;99.90;;;;;;5045641;28;20055;-71
2021/07/03 06:08:36;;;;;;;9.07;5.47;;;15.90;99.90;;;;;;5046700;28;20033;-72
2021/07/03 06:11:02;;;;;;;9.25;5.13;;;15.90;99.90;;;;;;5045399;28;20064;-71
2021/07/03 06:13:28;;;;;;;11.57;5.72;;;15.90;99.90;;;;;;5046172;28;20033;-74
2021/07/03 06:15:54;;;;;;;10.30;5.65;;;16.00;99.90;;;;;;5046529;28;20033;-76
2021/07/03 06:18:20;;;;;;;11.48;4.50;;;16.00;99.90;;;;;;5046632;28;20036;-72
2021/07/03 06:20:45;;;;;;;10.35;4.90;;;16.10;99.90;;;;;;5045923;28;20089;-73
2021/07/03 06:23:11;;;;;;;8.52;5.10;;;16.20;99.90;;;;;;5046022;28;20095;-72
2021/07/03 06:25:37;;;;;;;9.23;4.60;;;16.20;99.90;;;;;;5046117;28;20029;-71
2021/07/03 06:28:03;;;;;;;11.23;5.07;;;16.20;99.90;;;;;;5045299;28;20041;-72
2021/07/03 06:30:28;;;;;;;8.93;4.50;;;16.30;99.90;;;;;;5046183;28;20021;-72
2021/07/03 06:32:54;;;;;;;9.85;5.07;;;16.40;99.90;;;;;;5046038;28;20039;-74
2021/07/03 06:35:20;;;;;;;8.82;4.82;;;16.40;99.90;;;;;;5045992;28;20029;-72
2021/07/03 06:37:45;;;;;;;8.15;4.68;;;16.50;99.90;;;;;;5046008;28;20037;-72
2021/07/03 06:40:11;;;;;;;9.65;4.90;;;16.60;99.90;;;;;;5045564;28;20085;-70
2021/07/03 06:42:37;;;;;;;7.35;3.97;;;16.70;99.90;;;;;;5045495;28;20033;-71
2021/07/03 06:45:04;;;;;;;6.03;3.78;;;16.70;99.90;;;;;;5045858;28;20093;-71
2021/07/03 06:47:30;;;;;;;5.82;3.20;;;16.80;99.90;;;;;;5045376;28;20025;-71
2021/07/03 06:49:55;;;;;;;8.55;4.10;;;16.80;99.90;;;;;;5045952;28;20060;-71
2021/07/03 06:52:21;;;;;;;9.73;3.75;;;16.90;99.90;;;;;;5043286;28;20068;-71
2021/07/03 06:54:47;;;;;;;8.30;3.35;;;17.00;99.90;;;;;;5025411;28;20092;-71
2021/07/03 06:57:12;;;;;;;4.28;2.90;;;16.90;99.90;;;;;;5025819;28;20034;-71
2021/07/03 06:59:38;;;;;;;10.18;3.83;;;17.00;99.90;;;;;;5025590;28;20034;-71
2021/07/03 07:02:04;;;;;;;5.38;3.00;;;17.00;99.90;;;;;;5025327;28;20026;-74
2021/07/03 07:04:30;;;;;;;7.97;3.92;;;17.00;99.90;;;;;;5023985;28;20048;-71
2021/07/03 07:06:57;;;;;;;5.82;3.55;;;17.10;99.90;;;;;;5025429;28;20034;-72
2021/07/03 07:09:24;;;;;;;11.38;2.85;;;17.20;99.90;;;;;;5025640;28;20018;-72
2021/07/03 07:11:50;;;;;;;3.10;2.55;;;17.30;99.90;;;;;;5026234;28;20029;-71
2021/07/03 07:14:16;;;;;;;6.07;2.80;;;17.40;99.90;;;;;;5024922;28;20072;-71
2021/07/03 07:16:42;;;;;;;7.18;3.33;;;17.50;99.90;;;;;;5025692;28;20042;-71
2021/07/03 07:19:08;;;;;;;3.45;2.08;;;17.70;99.90;;;;;;5025321;28;20030;-70
2021/07/03 07:21:35;;;;;;;3.80;2.40;;;17.80;99.90;;;;;;5025168;28;20026;-72
2021/07/03 07:24:01;;;;;;;6.20;2.58;;;17.80;99.90;;;;;;5023920;28;20042;-72
2021/07/03 07:26:27;;;;;;;3.05;2.05;;;18.00;99.90;;;;;;5023586;28;20072;-71
2021/07/03 07:28:53;;;;;;;7.18;2.53;;;18.20;99.90;;;;;;5025086;28;20030;-72
2021/07/03 07:31:19;;;;;;;4.40;2.33;;;18.30;99.90;;;;;;5025303;28;20552;-70
2021/07/03 07:33:45;;;;;;;3.65;2.05;;;18.30;99.90;;;;;;5025126;28;20046;-71
2021/07/03 07:36:12;;;;;;;11.65;2.28;;;18.40;99.90;;;;;;5023375;28;20061;-70
2021/07/03 07:38:38;;;;;;;4.10;2.28;;;18.50;99.90;;;;;;5024081;28;20026;-73
2021/07/03 07:41:04;;;;;;;9.20;2.83;;;18.50;99.90;;;;;;5035644;28;20026;-72
2021/07/03 07:43:30;;;;;;;3.03;2.13;;;18.50;99.90;;;;;;5043946;28;20041;-72
2021/07/03 07:45:56;;;;;;;4.38;2.10;;;18.50;99.90;;;;;;5043077;28;20441;-72
2021/07/03 07:48:29;;;;;;;8.02;2.30;;;18.40;99.90;;;;;;5044668;28;20037;-71
2021/07/03 07:51:00;;;;;;;7.05;2.78;;;18.30;99.90;;;;;;5044244;28;20029;-71
2021/07/03 07:53:30;;;;;;;3.30;2.13;;;18.20;99.90;;;;;;5044015;28;20071;-72
2021/07/03 07:55:58;;;;;;;3.05;1.65;;;18.20;99.90;;;;;;5044492;28;20029;-69
2021/07/03 07:58:24;;;;;;;2.50;1.45;;;18.40;99.90;;;;;;5044603;28;20021;-71
2021/07/03 08:00:51;;;;;;;2.28;1.52;;;18.50;99.90;;;;;;5044669;28;20532;-70
2021/07/03 08:03:17;;;;;;;5.78;2.15;;;18.80;99.90;;;;;;5044230;28;20049;-70
2021/07/03 08:05:43;;;;;;;4.93;2.10;;;18.90;99.90;;;;;;5042910;28;20091;-72
2021/07/03 08:08:10;;;;;;;2.63;1.98;;;18.90;99.90;;;;;;5044297;28;20030;-69
2021/07/03 08:10:37;;;;;;;3.13;2.00;;;18.90;99.90;;;;;;5044264;28;20030;-71
2021/07/03 08:13:03;;;;;;;4.55;1.95;;;18.80;99.90;;;;;;5044256;28;20036;-72
2021/07/03 08:15:31;;;;;;;5.70;2.10;;;18.70;99.90;;;;;;5044462;28;20028;-70
2021/07/03 08:18:00;;;;;;;3.53;1.85;;;18.70;99.90;;;;;;5043763;28;20026;-71
2021/07/03 08:20:26;;;;;;;8.13;2.13;;;18.80;99.90;;;;;;5044269;28;20049;-73
2021/07/03 08:22:54;;;;;;;2.97;1.92;;;18.90;99.90;;;;;;5042623;28;20061;-70
2021/07/03 08:25:21;;;;;;;5.32;2.47;;;19.00;99.90;;;;;;5044296;28;20021;-70
2021/07/03 08:27:48;;;;;;;4.50;1.83;;;19.20;99.90;;;;;;5043061;28;20039;-71
2021/07/03 08:30:15;;;;;;;3.22;1.67;;;19.20;99.90;;;;;;5042560;28;20040;-74
2021/07/03 08:32:41;;;;;;;2.78;1.65;;;19.20;99.90;;;;;;5038332;28;20026;-70
2021/07/03 08:35:08;;;;;;;2.13;1.60;;;19.10;99.90;;;;;;5033362;28;20036;-72
2021/07/03 08:37:34;;;;;;;2.90;2.05;;;19.00;99.90;;;;;;5043171;28;20090;-71
2021/07/03 08:40:02;;;;;;;4.65;2.38;;;19.00;99.90;;;;;;5042619;28;20025;-71
2021/07/03 08:42:27;;;;;;;3.72;2.03;;;19.20;99.90;;;;;;5043218;28;20030;-71
2021/07/03 08:44:53;;;;;;;5.32;2.45;;;19.40;99.90;;;;;;5043098;28;20104;-70
2021/07/03 08:47:19;;;;;;;5.20;2.22;;;19.60;99.90;;;;;;5029170;28;20552;-73
2021/07/03 08:49:54;;;;;;;3.72;1.98;;;19.60;99.90;;;;;;5033635;28;20025;-75
2021/07/03 08:52:24;;;;;;;5.95;2.25;;;19.60;99.90;;;;;;5032111;28;20625;-72
2021/07/03 08:55:05;;;;;;;4.63;2.65;;;19.50;99.90;;;;;;5026913;28;20065;-72
2021/07/03 08:57:40;;;;;;;3.45;1.85;;;19.40;99.90;;;;;;5045622;28;20132;-71
2021/07/03 09:00:06;;;;;;;3.25;1.90;;;19.30;99.90;;;;;;5038919;28;20033;-73
2021/07/03 09:02:36;;;;;;;4.35;2.38;;;19.30;99.90;;;;;;5036058;28;20032;-74
2021/07/03 09:05:05;;;;;;;5.28;1.98;;;19.40;99.90;;;;;;5025672;28;20022;-72
2021/07/03 09:07:36;;;;;;;6.07;2.28;;;19.60;99.90;;;;;;5035527;28;20025;-72
2021/07/03 09:10:05;;;;;;;2.67;2.00;;;19.90;99.90;;;;;;5047610;28;20539;-71
2021/07/03 09:12:34;;;;;;;2.17;1.40;;;20.10;99.90;;;;;;5045882;28;20057;-72
2021/07/03 09:15:14;;;;;;;5.30;1.23;;;20.30;99.90;;;;;;5027661;28;20033;-71
2021/07/03 09:17:48;;;;;;;1.38;1.00;;;20.50;99.90;;;;;;5027439;28;20033;-72
2021/07/03 09:20:20;;;;;;;;;;;20.70;99.90;;;;;;5028005;28;20026;-71
2021/07/03 09:22:46;;;;;;;2.55;1.58;;;20.60;99.90;;;;;;5027597;28;20324;-72
2021/07/03 09:25:16;;;;;;;3.60;2.17;;;20.50;99.90;;;;;;5027011;28;20032;-71
2021/07/03 09:27:42;;;;;;;3.53;1.77;;;20.60;99.90;;;;;;5026859;28;20498;-71
2021/07/03 09:30:08;;;;;;;2.20;1.52;;;20.80;99.90;;;;;;5042613;28;20036;-72
2021/07/03 09:32:34;;;;;;;2.67;1.38;;;20.90;99.90;;;;;;5043936;28;20031;-73
2021/07/03 09:35:06;;;;;;;2.58;1.50;;;20.70;99.90;;;;;;5045657;28;20064;-73
2021/07/03 09:37:32;;;;;;;2.97;1.50;;;20.70;99.90;;;;;;5047030;28;20037;-75
2021/07/03 09:40:09;;;;;;;2.72;1.27;;;20.80;99.90;;;;;;5046623;28;20028;-73
2021/07/03 09:42:40;;;;;;;2.00;1.17;;;20.90;99.90;;;;;;5046815;28;20028;-75
2021/07/03 09:45:07;;;;;;;1.05;0.85;;;21.00;99.90;;;;;;5045832;28;20226;-72
2021/07/03 09:47:34;;;;;;;3.25;1.30;;;21.30;99.90;;;;;;5046892;28;20033;-73
2021/07/03 09:50:05;;;;;;;2.35;1.65;;;21.40;99.90;;;;;;5028017;28;20030;-72
2021/07/03 09:52:34;;;;;;;3.13;1.70;;;21.40;99.90;;;;;;5037666;28;20136;-74
2021/07/03 09:55:02;;;;;;;2.67;1.70;;;21.30;99.90;;;;;;5026659;28;20049;-73
2021/07/03 09:57:28;;;;;;;2.47;1.30;;;21.10;99.90;;;;;;5025797;28;20090;-72
2021/07/03 09:59:54;;;;;;;1.33;0.88;;;21.20;99.90;;;;;;5027312;28;20030;-74
2021/07/03 10:02:21;;;;;;;2.03;1.50;;;21.20;99.90;;;;;;5026138;28;20022;-72
2021/07/03 10:04:47;;;;;;;3.78;1.80;;;21.20;99.90;;;;;;5039854;28;20071;-74
2021/07/03 10:07:23;;;;;;;2.38;1.55;;;21.30;99.90;;;;;;5044794;28;20025;-74
2021/07/03 10:09:57;;;;;;;6.10;1.45;;;21.50;99.90;;;;;;5040629;28;20069;-73
2021/07/03 10:12:26;;;;;;;3.42;1.75;;;21.70;99.90;;;;;;5026299;28;20053;-72
2021/07/03 10:14:53;;;;;;;2.45;1.42;;;21.90;99.90;;;;;;5027028;28;20082;-72
2021/07/03 10:17:26;;;;;;;4.93;1.80;;;21.80;99.90;;;;;;5026260;28;20018;-73
2021/07/03 10:19:53;;;;;;;4.85;1.25;;;21.60;99.90;;;;;;5026404;28;20057;-71
2021/07/03 10:22:22;;;;;;;3.55;2.10;;;21.60;99.90;;;;;;5041703;28;20101;-73
2021/07/03 10:24:52;;;;;;;2.95;1.73;;;21.80;99.90;;;;;;5026247;28;20041;-72
2021/07/03 10:27:29;;;;;;;5.63;2.13;;;22.00;99.90;;;;;;5026389;28;20053;-71
2021/07/03 10:30:00;;;;;;;3.15;1.88;;;22.10;99.90;;;;;;5026151;28;20037;-73
2021/07/03 10:32:38;;;;;;;2.63;1.50;;;22.00;99.90;;;;;;5026068;28;20438;-70
2021/07/03 10:35:18;;;;;;;5.50;1.95;;;21.80;99.90;;;;;;5026234;28;20088;-70
2021/07/03 10:37:44;;;;;;;4.00;1.67;;;21.90;99.90;;;;;;5024572;28;20115;-73
2021/07/03 10:40:29;;;;;;;2.30;1.63;;;22.20;99.90;;;;;;5025619;28;20033;-74
2021/07/03 10:43:07;;;;;;;3.22;1.83;;;22.40;99.90;;;;;;5025155;28;20042;-70
2021/07/03 10:45:44;;;;;;;3.60;2.03;;;22.70;99.90;;;;;;5025675;28;20056;-72
2021/07/03 10:48:19;;;;;;;4.93;1.65;;;22.90;99.90;;;;;;5044978;28;20029;-73
2021/07/03 10:50:45;;;;;;;4.90;1.88;;;23.10;99.90;;;;;;5045979;28;20033;-72
2021/07/03 10:53:26;;;;;;;2.85;1.70;;;23.20;99.90;;;;;;5045042;28;20029;-73
2021/07/03 10:55:53;;;;;;;4.30;1.63;;;23.40;99.90;;;;;;5045978;28;20037;-72
2021/07/03 10:58:28;;;;;;;2.38;1.30;;;23.60;99.90;;;;;;5040789;28;20112;-69
2021/07/03 11:01:07;;;;;;;2.85;1.23;;;23.90;99.90;;;;;;5025599;28;20056;-74
2021/07/03 11:03:44;;;;;;;1.92;1.55;;;24.00;99.90;;;;;;5025788;28;20037;-71
2021/07/03 11:06:20;;;;;;;1.33;1.00;;;23.70;99.90;;;;;;5027250;28;20541;-71
2021/07/03 11:08:46;;;;;;;2.80;1.77;;;23.70;99.90;;;;;;5045418;28;20033;-72
2021/07/03 11:11:14;;;;;;;3.05;1.67;;;23.70;99.90;;;;;;5045421;28;20029;-71
2021/07/03 11:13:42;;;;;;;3.95;1.23;;;23.80;99.90;;;;;;5044796;28;20025;-72
2021/07/03 11:16:13;;;;;;;2.10;1.48;;;23.80;99.90;;;;;;5045221;28;20037;-73
2021/07/03 11:18:43;;;;;;;4.30;1.50;;;23.60;99.90;;;;;;5045298;28;20022;-73
2021/07/03 11:21:11;;;;;;;1.40;1.05;;;23.60;99.90;;;;;;5043689;28;20051;-72
2021/07/03 11:23:37;;;;;;;2.25;1.20;;;23.90;99.90;;;;;;5044943;28;20037;-74
2021/07/03 11:26:17;;;;;;;1.85;1.30;;;24.10;99.90;;;;;;5043832;28;20048;-72
2021/07/03 11:28:53;;;;;;;2.30;1.10;;;24.40;99.90;;;;;;5044746;28;20049;-73
2021/07/03 11:31:22;;;;;;;1.67;1.20;;;24.70;99.90;;;;;;5045168;28;20062;-70
2021/07/03 11:33:54;;;;;;;2.60;1.25;;;25.00;99.90;;;;;;5043791;28;20549;-75
2021/07/03 11:36:20;;;;;;;1.20;0.95;;;25.30;99.90;;;;;;5042337;28;20109;-73
2021/07/03 11:38:57;;;;;;;1.65;0.90;;;25.70;99.90;;;;;;5044916;28;20052;-73
2021/07/03 11:41:25;;;;;;;1.33;0.95;;;26.00;99.90;;;;;;5044440;28;20049;-74
2021/07/03 11:44:03;;;;;;;2.50;1.27;;;26.30;99.90;;;;;;5044346;28;20045;-76
2021/07/03 11:46:29;;;;;;;0.98;0.65;;;26.20;99.90;;;;;;5045062;28;20075;-73
2021/07/03 11:48:54;;;;;;;2.63;1.27;;;25.80;99.90;;;;;;5044874;28;20052;-74
2021/07/03 11:51:21;;;;;;;1.27;0.93;;;25.60;99.90;;;;;;5044608;28;20022;-72
2021/07/03 11:53:50;;;;;;;1.27;1.02;;;25.70;99.90;;;;;;5044513;28;20060;-73
2021/07/03 11:56:16;;;;;;;7.07;1.10;;;25.80;99.90;;;;;;5044742;28;20036;-71
2021/07/03 11:58:43;;;;;;;2.88;1.50;;;25.90;99.90;;;;;;5042552;28;20465;-73
2021/07/03 12:01:16;;;;;;;1.67;1.10;;;26.10;99.90;;;;;;5043254;28;20049;-72
2021/07/03 12:03:44;;;;;;;1.65;1.15;;;26.40;99.90;;;;;;5044370;28;20127;-71
2021/07/03 12:06:10;;;;;;;0.93;0.88;;;26.60;99.90;;;;;;5044309;28;20024;-68
2021/07/03 12:08:43;;;;;;;1.13;0.95;;;26.50;99.90;;;;;;5044479;28;20033;-72
2021/07/03 12:11:11;;;;;;;1.27;1.02;;;26.50;99.90;;;;;;5044336;28;20052;-73
2021/07/03 12:13:39;;;;;;;1.17;0.85;;;26.50;99.90;;;;;;5044438;28;20029;-74
2021/07/03 12:16:10;;;;;;;1.50;1.10;;;26.70;99.90;;;;;;5044226;28;20025;-71
2021/07/03 12:18:40;;;;;;;2.17;0.80;;;27.00;99.90;;;;;;5041289;28;20036;-71
2021/07/03 12:21:09;;;;;;;1.17;0.82;;;27.30;99.90;;;;;;5043672;28;20033;-73
2021/07/03 12:23:36;;;;;;;1.45;0.95;;;27.20;99.90;;;;;;5044095;28;20037;-72
2021/07/03 12:26:05;;;;;;;1.65;1.10;;;27.00;99.90;;;;;;5049698;28;20055;-73
2021/07/03 12:28:32;;;;;;;1.05;0.95;;;27.00;99.90;;;;;;5050413;28;20486;-71
2021/07/03 12:31:08;;;;;;;6.47;0.90;;;27.30;99.90;;;;;;5050620;28;20523;-77
2021/07/03 12:33:35;;;;;;;1.13;0.95;;;27.60;99.90;;;;;;5050286;28;20030;-74
2021/07/03 12:36:01;;;;;;;1.83;1.13;;;27.90;99.90;;;;;;5050668;28;20085;-74
2021/07/03 12:38:29;;;;;;;1.10;1.00;;;28.20;99.90;;;;;;5050156;28;20048;-72
2021/07/03 12:40:55;;;;;;;1.33;0.93;;;28.40;99.90;;;;;;5050451;28;20060;-72
2021/07/03 12:43:34;;;;;;;1.10;0.88;;;28.20;99.90;;;;;;5050375;28;20037;-73
2021/07/03 12:46:04;;;;;;;1.00;0.70;;;27.80;99.90;;;;;;5050236;28;20037;-74